Time;durP1;ratioP1;P1;durP2;ratioP2;P2;SDS_P1;SDS_P2;PMS_P1;PMS_P2;Temp;Humidity;BMP_temperature;BMP_pressure;BME280_temperature;BME280_humidity;BME280_pressure;Samples;Min_cycle;Max_cycle;Signal;HPM_P1;HPM_P2
2022/06/04 00:01:38;;;;;;;9.90;8.90;;;21.90;99.90;;;;;;6327491;28;20566;-64
2022/06/04 00:04:42;;;;;;;9.60;8.70;;;21.80;99.90;;;;;;6327870;28;20233;-65
2022/06/04 00:07:46;;;;;;;11.10;8.83;;;21.70;99.90;;;;;;6326889;28;20213;-66
2022/06/04 00:17:35;;;;;;;9.40;8.60;;;21.50;99.90;;;;;;6326818;28;20246;-66
2022/06/04 00:20:40;;;;;;;10.83;9.73;;;21.50;99.90;;;;;;6326734;28;20226;-66
2022/06/04 00:23:43;;;;;;;9.33;8.53;;;21.60;99.90;;;;;;6326457;28;20691;-66
2022/06/04 00:26:46;;;;;;;10.00;8.97;;;21.60;99.90;;;;;;6326170;28;20579;-66
2022/06/04 00:29:49;;;;;;;8.80;8.10;;;21.60;99.90;;;;;;6326006;28;20241;-66
2022/06/04 00:32:53;;;;;;;9.27;8.50;;;21.60;99.90;;;;;;6326246;28;20230;-65
2022/06/04 00:35:59;;;;;;;8.70;7.93;;;21.50;99.90;;;;;;6326601;28;20233;-65
2022/06/04 00:39:03;;;;;;;12.87;9.00;;;21.50;99.90;;;;;;6326089;28;20227;-66
2022/06/04 00:42:10;;;;;;;9.97;9.00;;;21.40;99.90;;;;;;6324988;28;20245;-67
2022/06/04 00:45:58;;;;;;;8.67;7.73;;;21.30;99.90;;;;;;6326102;28;20246;-67
2022/06/04 00:49:02;;;;;;;9.13;8.40;;;21.30;99.90;;;;;;6232509;28;20761;-66
2022/06/04 00:52:10;;;;;;;8.77;7.87;;;21.20;99.90;;;;;;6326060;28;20234;-70
2022/06/04 00:55:13;;;;;;;9.47;8.63;;;21.30;99.90;;;;;;6325915;28;20245;-65
2022/06/04 00:58:31;;;;;;;9.47;8.60;;;21.30;99.90;;;;;;6325487;28;20745;-65
2022/06/04 01:01:42;;;;;;;8.03;7.27;;;21.30;99.90;;;;;;6325457;28;20560;-65
2022/06/04 01:04:57;;;;;;;10.03;9.03;;;21.20;99.90;;;;;;6325580;28;20225;-66
2022/06/04 01:08:33;;;;;;;9.93;7.87;;;21.10;99.90;;;;;;6325798;28;20230;-66
2022/06/04 01:15:17;;;;;;;10.03;7.97;;;21.10;99.90;;;;;;6324314;28;20659;-66
2022/06/04 01:18:33;;;;;;;9.47;8.47;;;21.10;99.90;;;;;;6321142;28;20229;-66
2022/06/04 01:21:45;;;;;;;8.93;8.07;;;21.10;99.90;;;;;;6325679;28;20226;-66
2022/06/04 01:25:08;;;;;;;10.00;9.00;;;21.00;99.90;;;;;;6325233;28;20230;-66
2022/06/04 01:28:16;;;;;;;9.67;8.77;;;21.00;99.90;;;;;;6325070;28;20252;-66
2022/06/04 01:31:25;;;;;;;10.03;8.70;;;20.90;99.90;;;;;;6325424;28;20227;-66
2022/06/04 01:34:34;;;;;;;8.30;7.50;;;20.90;99.90;;;;;;6325461;28;20317;-66
2022/06/04 01:37:43;;;;;;;10.17;9.17;;;20.90;99.90;;;;;;6324933;28;20214;-66
2022/06/04 01:41:07;;;;;;;8.80;8.00;;;20.90;99.90;;;;;;6325192;28;20206;-66
2022/06/04 01:44:15;;;;;;;8.90;8.10;;;20.90;99.90;;;;;;6324895;28;20253;-67
2022/06/04 01:47:21;;;;;;;9.40;8.50;;;20.80;99.90;;;;;;6324697;28;20226;-67
2022/06/04 01:50:29;;;;;;;9.30;8.60;;;20.80;99.90;;;;;;6325249;28;20236;-67
2022/06/04 01:53:36;;;;;;;9.67;8.97;;;20.80;99.90;;;;;;6324312;28;20238;-66
2022/06/04 01:56:46;;;;;;;9.50;8.70;;;20.70;99.90;;;;;;6324446;28;20241;-66
2022/06/04 01:59:54;;;;;;;10.37;9.47;;;20.70;99.90;;;;;;6324394;28;20230;-67
2022/06/04 02:03:00;;;;;;;10.20;9.20;;;20.70;99.90;;;;;;6324673;28;20245;-67
2022/06/04 02:06:10;;;;;;;10.23;9.40;;;20.70;99.90;;;;;;6324803;28;20233;-67
2022/06/04 02:09:17;;;;;;;10.63;9.83;;;20.60;99.90;;;;;;6324474;28;20222;-66
2022/06/04 02:12:20;;;;;;;11.90;10.90;;;20.60;99.90;;;;;;6323510;28;20229;-66
2022/06/04 02:15:31;;;;;;;11.10;10.23;;;20.60;99.90;;;;;;6323897;28;20222;-66
2022/06/04 02:18:35;;;;;;;11.40;10.43;;;20.50;99.90;;;;;;6324101;28;20222;-66
2022/06/04 02:21:38;;;;;;;11.00;10.20;;;20.50;99.90;;;;;;6323998;28;20691;-66
2022/06/04 02:24:42;;;;;;;11.00;10.17;;;20.60;99.90;;;;;;6324549;28;20226;-66
2022/06/04 02:27:45;;;;;;;9.17;8.47;;;20.50;99.90;;;;;;6323928;28;20222;-66
2022/06/04 02:30:56;;;;;;;11.23;10.23;;;20.50;99.90;;;;;;6324016;28;20668;-67
2022/06/04 02:34:08;;;;;;;11.30;10.50;;;20.40;99.90;;;;;;6323372;28;20271;-67
2022/06/04 02:37:17;;;;;;;10.40;9.50;;;20.40;99.90;;;;;;6322673;28;20671;-67
2022/06/04 02:40:25;;;;;;;10.10;9.23;;;20.30;99.90;;;;;;6309052;28;20230;-67
2022/06/04 02:43:41;;;;;;;9.53;8.80;;;20.30;99.90;;;;;;6319473;28;20222;-66
2022/06/04 02:46:51;;;;;;;10.53;9.50;;;20.20;99.90;;;;;;6324678;28;20230;-66
2022/06/04 02:50:01;;;;;;;9.60;8.70;;;20.20;99.90;;;;;;6324013;28;20203;-66
2022/06/04 02:53:06;;;;;;;11.37;10.20;;;20.10;99.90;;;;;;6323707;28;20675;-66
2022/06/04 02:56:12;;;;;;;11.40;10.50;;;20.10;99.90;;;;;;6323700;28;20237;-66
2022/06/04 02:59:18;;;;;;;10.33;9.43;;;20.00;99.90;;;;;;6323866;28;20234;-66
2022/06/04 03:02:24;;;;;;;10.43;9.63;;;20.00;99.90;;;;;;6323818;28;20229;-66
2022/06/04 03:05:29;;;;;;;12.20;11.00;;;20.00;99.90;;;;;;6325984;28;20656;-66
2022/06/04 03:08:37;;;;;;;11.33;10.33;;;19.90;99.90;;;;;;6329090;28;20241;-66
2022/06/04 03:11:44;;;;;;;11.60;10.57;;;20.00;99.90;;;;;;6328405;28;20231;-65
2022/06/04 03:14:47;;;;;;;11.77;10.77;;;19.90;99.90;;;;;;6328110;28;20250;-65
2022/06/04 03:17:52;;;;;;;11.10;10.07;;;19.90;99.90;;;;;;6328314;28;20237;-66
2022/06/04 03:20:55;;;;;;;10.40;9.60;;;19.90;99.90;;;;;;6328699;28;20241;-66
2022/06/04 03:23:58;;;;;;;11.93;10.70;;;19.90;99.90;;;;;;6327797;28;20241;-65
2022/06/04 03:27:01;;;;;;;11.50;10.30;;;19.80;99.90;;;;;;6318197;28;20245;-65
2022/06/04 03:30:06;;;;;;;11.37;10.37;;;19.80;99.90;;;;;;6327958;28;20253;-65
2022/06/04 03:33:10;;;;;;;12.37;11.30;;;19.80;99.90;;;;;;6327622;28;20231;-66
2022/06/04 03:36:14;;;;;;;11.27;10.27;;;19.80;99.90;;;;;;6327847;28;20245;-66
2022/06/04 03:39:17;;;;;;;10.73;9.80;;;19.80;99.90;;;;;;6328003;28;20230;-66
2022/06/04 03:42:20;;;;;;;11.27;10.33;;;19.80;99.90;;;;;;6327240;28;20241;-65
2022/06/04 03:45:24;;;;;;;10.77;9.77;;;19.80;99.90;;;;;;6327953;28;20253;-65
2022/06/04 03:48:29;;;;;;;10.80;9.67;;;19.80;99.90;;;;;;6327882;28;20303;-66
2022/06/04 03:51:32;;;;;;;10.93;10.03;;;19.80;99.90;;;;;;6327254;28;20344;-66
2022/06/04 03:54:54;;;;;;;12.43;10.10;;;19.80;99.90;;;;;;6327532;28;20241;-66
2022/06/04 03:57:57;;;;;;;9.60;8.80;;;19.80;99.90;;;;;;6327433;28;20656;-66
2022/06/04 04:01:00;;;;;;;11.20;10.37;;;19.90;99.90;;;;;;6327315;28;20230;-66
2022/06/04 04:04:05;;;;;;;10.80;9.90;;;19.80;99.90;;;;;;6327266;28;20254;-65
2022/06/04 04:07:08;;;;;;;11.63;10.63;;;19.70;99.90;;;;;;6326850;28;20223;-65
2022/06/04 04:10:12;;;;;;;10.23;9.37;;;19.70;99.90;;;;;;6327074;28;20230;-65
2022/06/04 04:13:18;;;;;;;11.63;10.60;;;19.80;99.90;;;;;;6326984;28;20234;-65
2022/06/04 04:16:23;;;;;;;10.10;9.30;;;19.90;99.90;;;;;;6325727;28;20233;-65
2022/06/04 04:19:30;;;;;;;10.93;9.20;;;20.00;99.90;;;;;;6326772;28;20230;-65
2022/06/04 04:22:34;;;;;;;11.17;10.17;;;20.10;99.90;;;;;;6326478;28;20235;-66
2022/06/04 04:25:38;;;;;;;11.20;10.10;;;20.20;99.90;;;;;;6326552;28;20239;-66
2022/06/04 04:28:42;;;;;;;9.60;8.77;;;20.30;99.90;;;;;;6321676;28;20664;-66
2022/06/04 04:31:45;;;;;;;9.80;9.00;;;20.40;99.90;;;;;;6326294;28;20232;-66
2022/06/04 04:34:50;;;;;;;10.17;9.17;;;20.50;99.90;;;;;;6326364;28;20211;-66
2022/06/04 04:37:53;;;;;;;9.80;9.00;;;20.70;99.90;;;;;;6326454;28;20283;-66
2022/06/04 04:40:56;;;;;;;9.60;8.80;;;20.80;99.90;;;;;;6326460;28;20317;-66
2022/06/04 04:44:00;;;;;;;12.13;8.63;;;20.90;99.90;;;;;;6325898;28;20252;-66
2022/06/04 04:47:03;;;;;;;11.07;9.70;;;21.00;99.90;;;;;;6326451;28;20226;-66
2022/06/04 04:50:14;;;;;;;12.03;10.40;;;21.00;99.90;;;;;;6326427;28;20253;-66
2022/06/04 04:53:17;;;;;;;9.63;8.93;;;21.00;99.90;;;;;;6325961;28;20230;-66
2022/06/04 04:56:24;;;;;;;9.90;9.10;;;21.10;99.90;;;;;;6325978;28;20226;-66
2022/06/04 04:59:27;;;;;;;10.17;9.17;;;21.20;99.90;;;;;;6325527;28;20228;-66
2022/06/04 05:02:31;;;;;;;9.70;9.00;;;21.30;99.90;;;;;;6320765;28;20668;-66
2022/06/04 05:05:36;;;;;;;9.00;8.20;;;21.40;99.90;;;;;;6313033;28;20306;-66
2022/06/04 05:08:39;;;;;;;9.67;8.87;;;21.50;99.90;;;;;;6317033;28;20230;-66
2022/06/04 05:11:43;;;;;;;10.17;9.37;;;21.60;99.90;;;;;;6325271;28;20707;-65
2022/06/04 05:14:53;;;;;;;9.97;9.27;;;21.70;99.90;;;;;;6325554;28;20238;-66
2022/06/04 05:17:56;;;;;;;9.33;8.60;;;21.90;99.90;;;;;;6325472;28;20221;-66
2022/06/04 05:21:11;;;;;;;9.43;8.50;;;22.00;99.90;;;;;;6325668;28;20235;-66
2022/06/04 05:24:17;;;;;;;9.47;8.13;;;22.10;99.90;;;;;;6325317;28;20227;-66
2022/06/04 05:27:20;;;;;;;9.23;8.53;;;22.20;99.90;;;;;;6324700;28;20306;-66
2022/06/04 05:30:24;;;;;;;9.00;8.20;;;22.40;99.90;;;;;;6325302;28;20226;-66
2022/06/04 05:33:27;;;;;;;9.17;8.30;;;22.50;99.90;;;;;;6324995;28;20226;-66
2022/06/04 05:36:31;;;;;;;7.70;7.00;;;22.70;99.90;;;;;;6320432;28;20686;-66
2022/06/04 05:39:35;;;;;;;8.70;7.23;;;22.80;99.90;;;;;;6324988;28;20284;-66
2022/06/04 05:42:38;;;;;;;9.17;8.30;;;23.00;99.90;;;;;;6324719;28;20655;-66
2022/06/04 05:45:41;;;;;;;8.43;7.63;;;23.10;99.90;;;;;;6325208;28;20245;-66
2022/06/04 05:48:45;;;;;;;8.47;7.40;;;23.10;99.90;;;;;;6325133;28;20234;-66
2022/06/04 05:51:51;;;;;;;9.67;8.77;;;23.20;99.90;;;;;;6324797;28;20234;-66
2022/06/04 05:54:54;;;;;;;8.00;7.30;;;23.30;99.90;;;;;;6325008;28;20526;-66
2022/06/04 05:57:58;;;;;;;9.30;8.37;;;23.40;99.90;;;;;;6324342;28;20226;-66
2022/06/04 06:01:02;;;;;;;8.57;7.87;;;23.60;99.90;;;;;;6324170;28;20717;-66
2022/06/04 06:04:06;;;;;;;8.37;7.57;;;23.90;99.90;;;;;;6324383;28;20235;-65
2022/06/04 06:07:10;;;;;;;9.60;8.37;;;24.20;99.90;;;;;;6324312;28;20303;-65
2022/06/04 06:10:13;;;;;;;8.97;8.00;;;24.90;99.90;;;;;;6324521;28;20241;-65
2022/06/04 06:13:17;;;;;;;8.70;7.50;;;25.50;99.90;;;;;;6324013;28;20688;-65
2022/06/04 06:16:24;;;;;;;10.27;7.27;;;25.90;99.90;;;;;;6323965;28;20241;-65
2022/06/04 06:19:30;;;;;;;8.10;7.50;;;26.60;99.90;;;;;;6324260;28;20305;-65
2022/06/04 06:22:35;;;;;;;8.47;7.77;;;27.20;98.70;;;;;;6323919;28;20238;-65
2022/06/04 06:25:38;;;;;;;8.27;7.67;;;27.70;97.30;;;;;;6323575;28;20240;-65
2022/06/04 06:28:42;;;;;;;9.47;8.13;;;28.00;96.40;;;;;;6324486;28;20516;-66
2022/06/04 06:31:46;;;;;;;8.13;7.53;;;28.30;95.60;;;;;;6323952;28;20293;-66
2022/06/04 06:34:49;;;;;;;8.27;7.57;;;28.60;94.90;;;;;;6324061;28;20520;-66
2022/06/04 06:37:54;;;;;;;8.23;7.50;;;29.10;93.90;;;;;;6323907;28;20197;-66
2022/06/04 06:40:58;;;;;;;9.27;7.67;;;29.80;92.50;;;;;;6326686;28;20533;-66
2022/06/04 06:44:02;;;;;;;8.73;8.00;;;30.60;90.80;;;;;;6328554;28;20253;-66
2022/06/04 06:47:05;;;;;;;7.55;6.88;;;31.10;89.10;;;;;;6328928;28;20221;-67
2022/06/04 06:50:09;;;;;;;8.90;8.07;;;31.50;85.10;;;;;;6328868;28;20679;-66
2022/06/04 06:53:14;;;;;;;8.02;7.43;;;31.70;83.50;;;;;;6328277;28;20237;-65
2022/06/04 06:56:19;;;;;;;8.63;7.93;;;32.40;80.30;;;;;;6328670;28;20222;-66
2022/06/04 06:59:24;;;;;;;8.77;7.80;;;32.70;78.70;;;;;;6328480;28;20561;-66
2022/06/04 07:02:27;;;;;;;8.93;8.13;;;33.40;75.40;;;;;;6328680;28;20232;-66
2022/06/04 07:05:30;;;;;;;9.80;8.38;;;34.20;71.10;;;;;;6328734;28;20237;-67
2022/06/04 07:08:35;;;;;;;11.63;8.23;;;34.60;68.80;;;;;;6329241;28;20230;-67
2022/06/04 07:11:38;;;;;;;9.43;8.63;;;34.70;66.90;;;;;;6328895;28;20241;-66
2022/06/04 07:14:41;;;;;;;8.77;8.07;;;35.00;65.50;;;;;;6329327;28;20674;-67
2022/06/04 07:17:45;;;;;;;9.73;9.02;;;35.50;63.60;;;;;;6329087;28;20563;-67
2022/06/04 07:20:48;;;;;;;9.30;8.52;;;35.80;61.00;;;;;;6329736;28;20225;-67
2022/06/04 07:23:53;;;;;;;9.48;8.68;;;36.50;59.10;;;;;;6329591;28;20229;-67
2022/06/04 07:26:57;;;;;;;9.23;8.40;;;36.70;58.50;;;;;;6328251;28;20234;-67
2022/06/04 07:30:00;;;;;;;8.07;7.47;;;37.60;56.70;;;;;;6328171;28;20318;-67
2022/06/04 07:33:03;;;;;;;8.23;7.53;;;37.90;54.80;;;;;;6328092;28;20244;-67
2022/06/04 07:36:06;;;;;;;9.93;8.85;;;38.40;52.80;;;;;;6328203;28;20241;-67
2022/06/04 07:39:14;;;;;;;12.05;7.50;;;39.00;51.80;;;;;;6327781;28;20237;-68
2022/06/04 07:42:17;;;;;;;7.38;6.68;;;39.70;50.00;;;;;;6327736;28;20238;-67
2022/06/04 07:45:20;;;;;;;7.35;6.68;;;39.70;49.00;;;;;;6327623;28;20233;-67
2022/06/04 07:48:23;;;;;;;7.95;7.28;;;39.10;47.10;;;;;;6327268;28;20240;-67
2022/06/04 07:51:31;;;;;;;6.15;5.63;;;38.60;48.00;;;;;;6327037;28;20230;-67
2022/06/04 07:54:35;;;;;;;6.15;5.72;;;38.30;46.90;;;;;;6327254;28;20225;-68
2022/06/04 07:57:40;;;;;;;7.90;7.20;;;37.90;45.80;;;;;;6327353;28;20304;-67
2022/06/04 08:00:44;;;;;;;7.60;6.93;;;36.70;48.40;;;;;;6327312;28;20666;-67
2022/06/04 08:03:49;;;;;;;7.05;6.47;;;35.90;50.60;;;;;;6327238;28;20243;-67
2022/06/04 08:06:52;;;;;;;7.30;6.80;;;35.40;51.20;;;;;;6326857;28;20575;-67
2022/06/04 08:09:56;;;;;;;6.90;6.43;;;34.70;50.70;;;;;;6327161;28;20225;-67
2022/06/04 08:13:00;;;;;;;7.93;7.32;;;33.90;52.80;;;;;;6326365;28;20293;-67
2022/06/04 08:16:03;;;;;;;7.75;7.05;;;33.40;54.90;;;;;;6326260;28;20543;-67
2022/06/04 08:19:07;;;;;;;6.53;5.97;;;33.10;55.90;;;;;;6326323;28;20239;-66
2022/06/04 08:22:11;;;;;;;7.72;7.10;;;32.90;56.20;;;;;;6326879;28;20663;-66
2022/06/04 08:25:16;;;;;;;7.60;6.38;;;32.40;56.60;;;;;;6326804;28;20253;-66
2022/06/04 08:28:20;;;;;;;6.97;6.47;;;32.00;57.90;;;;;;6326559;28;20236;-68
2022/06/04 08:31:23;;;;;;;7.45;6.47;;;31.80;57.70;;;;;;6326038;28;20233;-67
2022/06/04 08:34:26;;;;;;;7.18;6.18;;;31.50;58.20;;;;;;6326411;28;20230;-67
2022/06/04 08:37:29;;;;;;;6.35;5.90;;;31.20;58.90;;;;;;6311858;28;20217;-67
2022/06/04 08:40:38;;;;;;;6.75;6.15;;;31.20;59.20;;;;;;6312219;28;20215;-67
2022/06/04 08:43:49;;;;;;;6.60;5.95;;;31.00;60.30;;;;;;6315858;28;20222;-67
2022/06/04 08:46:57;;;;;;;7.13;6.53;;;31.00;61.20;;;;;;6324764;28;20190;-67
2022/06/04 08:50:07;;;;;;;6.35;5.80;;;31.10;60.90;;;;;;6316359;28;20240;-67
2022/06/04 08:53:18;;;;;;;7.13;6.00;;;31.20;60.00;;;;;;6323241;28;20307;-67
2022/06/04 08:59:53;;;;;;;6.70;6.07;;;31.10;60.70;;;;;;6322671;28;20297;-67
2022/06/04 09:03:11;;;;;;;6.72;6.07;;;30.80;60.90;;;;;;6319324;28;20222;-67
2022/06/04 09:06:34;;;;;;;8.43;5.93;;;30.70;60.40;;;;;;6317671;28;20226;-68
2022/06/04 09:09:43;;;;;;;6.20;5.80;;;30.60;59.70;;;;;;6306657;28;20246;-67
2022/06/04 09:12:54;;;;;;;6.78;6.15;;;30.80;61.50;;;;;;6315288;28;20226;-66
2022/06/04 09:16:02;;;;;;;6.72;6.05;;;30.80;61.30;;;;;;6318905;28;20231;-66
2022/06/04 09:19:14;;;;;;;6.50;6.00;;;30.60;61.90;;;;;;6310979;28;20679;-66
2022/06/04 09:22:21;;;;;;;6.68;5.78;;;30.60;62.80;;;;;;6309480;28;20391;-66
2022/06/04 09:25:28;;;;;;;7.20;6.50;;;30.70;64.30;;;;;;6305809;28;20221;-67
2022/06/04 09:28:41;;;;;;;5.05;4.65;;;30.60;62.20;;;;;;6307393;28;20225;-67
2022/06/04 09:31:52;;;;;;;6.13;5.50;;;30.70;60.80;;;;;;6323477;28;20234;-68
2022/06/04 09:34:57;;;;;;;6.18;5.57;;;30.50;62.20;;;;;;6325283;28;20210;-67
2022/06/04 09:38:01;;;;;;;6.63;6.13;;;30.60;62.70;;;;;;6325016;28;20233;-67
2022/06/04 09:41:06;;;;;;;6.18;5.57;;;30.80;63.50;;;;;;6325234;28;20233;-67
2022/06/04 09:44:16;;;;;;;7.15;6.57;;;30.80;62.80;;;;;;6324685;28;20237;-66
2022/06/04 09:47:23;;;;;;;8.68;6.80;;;30.60;63.60;;;;;;6320716;28;20251;-66
2022/06/04 09:50:30;;;;;;;7.00;5.90;;;30.50;63.90;;;;;;6324752;28;20237;-66
2022/06/04 09:53:43;;;;;;;6.97;5.53;;;30.60;61.90;;;;;;6324495;28;20236;-66
2022/06/04 09:56:52;;;;;;;6.25;5.47;;;30.60;61.90;;;;;;6324247;28;20230;-66
2022/06/04 09:59:58;;;;;;;6.97;6.25;;;30.50;62.50;;;;;;6324487;28;20247;-66
2022/06/04 10:03:04;;;;;;;6.22;5.70;;;30.60;62.80;;;;;;6324243;28;20233;-65
2022/06/04 10:06:11;;;;;;;7.22;6.55;;;30.80;63.00;;;;;;6324213;28;20240;-67
2022/06/04 10:16:16;;;;;;;12.50;6.88;;;31.00;63.70;;;;;;6310346;28;20691;-67
2022/06/04 10:19:22;;;;;;;7.10;6.50;;;30.90;63.60;;;;;;6318280;28;20740;-66
2022/06/04 10:22:25;;;;;;;6.85;5.93;;;30.90;63.60;;;;;;6315882;28;20226;-67
2022/06/04 10:25:41;;;;;;;6.97;5.90;;;31.10;63.50;;;;;;6316396;28;20228;-66
2022/06/04 10:28:56;;;;;;;7.78;6.35;;;30.90;62.10;;;;;;6318062;28;20221;-66
2022/06/04 10:32:11;;;;;;;6.72;6.22;;;31.00;61.70;;;;;;6317738;28;20546;-66
2022/06/04 10:35:51;;;;;;;6.00;5.50;;;31.10;61.10;;;;;;6315288;28;20236;-66
2022/06/04 10:39:03;;;;;;;5.65;5.13;;;31.10;60.20;;;;;;6317813;28;20218;-66
2022/06/04 10:42:12;;;;;;;7.30;6.47;;;31.00;59.10;;;;;;6325013;28;20237;-66
2022/06/04 10:45:18;;;;;;;6.82;6.22;;;31.00;59.70;;;;;;6327250;28;20230;-65
2022/06/04 10:48:37;;;;;;;9.00;6.82;;;30.90;61.80;;;;;;6328373;28;20254;-67
2022/06/04 10:51:49;;;;;;;6.75;6.15;;;30.90;62.30;;;;;;6328236;28;20236;-67
2022/06/04 10:55:00;;;;;;;7.07;6.57;;;31.00;62.20;;;;;;6328794;28;20218;-66
2022/06/04 10:58:21;;;;;;;6.38;5.88;;;31.10;62.00;;;;;;6328866;28;20241;-67
2022/06/04 11:01:31;;;;;;;6.72;6.07;;;31.10;60.70;;;;;;6328125;28;20312;-68
2022/06/04 11:04:44;;;;;;;6.45;5.68;;;30.90;59.80;;;;;;6328745;28;20525;-64
2022/06/04 11:07:53;;;;;;;5.45;4.95;;;30.90;59.70;;;;;;6328220;27;20239;-68
2022/06/04 11:11:01;;;;;;;5.75;5.20;;;31.20;59.20;;;;;;6328314;28;20216;-70
2022/06/04 11:14:09;;;;;;;7.57;5.13;;;31.20;58.90;;;;;;6328290;28;20619;-67
2022/06/04 11:17:20;;;;;;;4.78;4.38;;;31.10;58.60;;;;;;6328542;28;20309;-66
2022/06/04 11:20:30;;;;;;;5.18;4.68;;;31.10;56.70;;;;;;6328485;28;20229;-68
2022/06/04 11:23:39;;;;;;;4.50;4.10;;;31.10;55.70;;;;;;6328464;27;20229;-68
2022/06/04 11:26:47;;;;;;;5.75;4.35;;;31.10;55.80;;;;;;6327336;28;20355;-69
2022/06/04 11:29:52;;;;;;;4.93;3.92;;;31.10;55.80;;;;;;6328055;27;20325;-69
2022/06/04 11:33:03;;;;;;;6.38;4.93;;;31.30;55.80;;;;;;6328084;28;20245;-68
2022/06/04 11:36:21;;;;;;;5.60;5.20;;;31.40;58.80;;;;;;6328320;28;20237;-68
2022/06/04 11:39:41;;;;;;;6.07;5.00;;;31.50;59.40;;;;;;6328009;28;20567;-70
2022/06/04 11:42:54;;;;;;;4.90;4.50;;;31.70;57.60;;;;;;6327502;27;20234;-66
2022/06/04 11:46:15;;;;;;;8.68;4.72;;;31.80;58.30;;;;;;6327393;28;20240;-69
2022/06/04 11:49:32;;;;;;;5.57;5.05;;;31.80;58.20;;;;;;6327439;28;20304;-67
2022/06/04 11:52:45;;;;;;;5.75;5.10;;;31.70;57.50;;;;;;6327290;28;20245;-66
2022/06/04 11:55:56;;;;;;;6.93;5.18;;;31.70;56.90;;;;;;6326564;28;20686;-67
2022/06/04 11:59:26;;;;;;;5.50;4.97;;;31.80;57.10;;;;;;6326852;28;20190;-66
2022/06/04 12:02:36;;;;;;;5.97;4.50;;;31.80;56.60;;;;;;6327281;28;20239;-65
2022/06/04 12:05:47;;;;;;;5.15;4.68;;;31.50;56.40;;;;;;6326545;28;20640;-66
2022/06/04 12:08:59;;;;;;;5.43;4.93;;;31.50;56.80;;;;;;6327293;28;20225;-68
2022/06/04 12:12:09;;;;;;;5.50;4.95;;;31.50;57.20;;;;;;6326983;28;20237;-64
2022/06/04 12:15:22;;;;;;;4.85;4.38;;;31.40;57.50;;;;;;6326892;28;20230;-65
2022/06/04 12:18:30;;;;;;;6.18;4.78;;;31.50;56.10;;;;;;6327176;28;20252;-65
2022/06/04 12:25:02;;;;;;;4.68;4.15;;;31.70;57.10;;;;;;6326373;28;20233;-65
2022/06/04 12:28:24;;;;;;;5.30;4.88;;;31.80;57.00;;;;;;6326540;28;20279;-64
2022/06/04 12:31:34;;;;;;;5.30;4.90;;;31.80;57.50;;;;;;6325971;28;20238;-64
2022/06/04 12:34:39;;;;;;;5.80;5.30;;;31.60;57.50;;;;;;6326376;28;20245;-65
2022/06/04 12:37:47;;;;;;;5.63;5.05;;;31.30;58.60;;;;;;6324965;28;20251;-64
2022/06/04 12:40:52;;;;;;;5.20;4.57;;;31.30;58.60;;;;;;6326532;28;20265;-64
2022/06/04 12:43:59;;;;;;;7.28;4.55;;;31.40;58.00;;;;;;6326184;28;20222;-64
2022/06/04 12:47:19;;;;;;;6.22;4.97;;;31.60;56.70;;;;;;6326161;28;20222;-65
2022/06/04 12:50:28;;;;;;;5.50;5.10;;;31.40;57.90;;;;;;6326598;28;20240;-65
2022/06/04 12:53:34;;;;;;;4.72;4.32;;;31.40;57.50;;;;;;6325591;28;20233;-65
2022/06/04 12:56:40;;;;;;;4.82;4.43;;;31.10;57.00;;;;;;6325796;28;20701;-64
2022/06/04 12:59:46;;;;;;;5.72;4.18;;;31.10;57.50;;;;;;6321296;28;20252;-65
2022/06/04 13:02:59;;;;;;;5.65;4.90;;;31.30;57.50;;;;;;6325361;28;20238;-65
2022/06/04 13:06:06;;;;;;;4.53;3.80;;;31.10;57.10;;;;;;6325772;28;20229;-65
2022/06/04 13:09:19;;;;;;;4.90;4.38;;;30.90;57.60;;;;;;6325694;28;20733;-65
2022/06/04 13:12:33;;;;;;;5.40;4.40;;;31.10;57.60;;;;;;6325475;28;20554;-66
2022/06/04 13:15:44;;;;;;;5.50;3.90;;;31.20;57.70;;;;;;6325038;28;20242;-65
2022/06/04 13:19:01;;;;;;;6.53;4.50;;;31.30;56.90;;;;;;6325356;28;20295;-66
2022/06/04 13:22:17;;;;;;;4.80;4.40;;;31.40;56.30;;;;;;6325448;28;20535;-66
2022/06/04 13:25:27;;;;;;;5.60;4.00;;;31.30;56.00;;;;;;6325337;28;20226;-65
2022/06/04 13:28:39;;;;;;;7.47;4.03;;;31.10;57.20;;;;;;6325311;28;20690;-66
2022/06/04 13:31:52;;;;;;;5.85;4.38;;;31.00;56.80;;;;;;6324370;28;20234;-66
2022/06/04 13:35:02;;;;;;;4.07;3.53;;;31.00;56.80;;;;;;6324982;28;20190;-66
2022/06/04 13:38:28;;;;;;;5.65;4.60;;;30.90;56.00;;;;;;6324876;28;20244;-66
2022/06/04 13:44:59;;;;;;;4.75;4.07;;;31.10;57.20;;;;;;6324566;28;20563;-65
2022/06/04 13:48:19;;;;;;;4.40;4.00;;;31.00;55.60;;;;;;6324154;28;20218;-66
2022/06/04 13:51:25;;;;;;;5.70;3.80;;;31.00;55.90;;;;;;6324572;28;20225;-66
2022/06/04 13:54:31;;;;;;;4.30;3.45;;;31.10;55.30;;;;;;6324780;28;20229;-65
2022/06/04 13:57:38;;;;;;;5.70;3.85;;;31.20;55.60;;;;;;6323892;28;20582;-64
2022/06/04 14:00:43;;;;;;;7.70;4.00;;;31.10;54.50;;;;;;6323069;28;20228;-64
2022/06/04 14:03:48;;;;;;;6.20;3.95;;;31.20;54.90;;;;;;6322558;28;20255;-64
2022/06/04 14:06:52;;;;;;;7.15;3.97;;;31.20;54.80;;;;;;6322711;28;20543;-64
2022/06/04 14:09:58;;;;;;;5.38;4.50;;;31.30;54.60;;;;;;6322510;28;20240;-64
2022/06/04 14:13:12;;;;;;;5.93;4.22;;;31.30;54.30;;;;;;6323166;28;20244;-64
2022/06/04 14:16:32;;;;;;;5.57;4.97;;;31.40;54.10;;;;;;6324322;28;20225;-64
2022/06/04 14:20:03;;;;;;;4.47;4.07;;;31.60;54.30;;;;;;6323598;28;20229;-64
2022/06/04 14:23:21;;;;;;;4.53;4.22;;;31.60;54.90;;;;;;6322626;28;20732;-65
2022/06/04 14:26:34;;;;;;;8.65;4.38;;;31.70;54.60;;;;;;6323216;28;20229;-65
2022/06/04 14:29:46;;;;;;;4.50;4.20;;;31.70;54.30;;;;;;6323118;28;20226;-65
2022/06/04 14:32:53;;;;;;;5.30;4.30;;;31.70;54.60;;;;;;6322755;28;20439;-65
2022/06/04 14:35:59;;;;;;;5.80;3.90;;;31.80;55.10;;;;;;6323969;28;20226;-64
2022/06/04 14:39:03;;;;;;;4.80;4.28;;;31.80;53.90;;;;;;6323844;28;20828;-65
2022/06/04 14:42:25;;;;;;;5.28;4.88;;;31.70;54.40;;;;;;6324641;28;20225;-63
2022/06/04 14:45:38;;;;;;;7.78;4.80;;;31.50;56.10;;;;;;6324184;28;20236;-64
2022/06/04 14:49:12;;;;;;;5.50;4.65;;;31.30;55.80;;;;;;6323640;28;20233;-64
2022/06/04 14:52:38;;;;;;;4.28;3.85;;;31.00;55.80;;;;;;6323332;28;20728;-64
2022/06/04 14:55:59;;;;;;;5.05;4.38;;;30.80;56.80;;;;;;6319606;28;20226;-64
2022/06/04 14:59:24;;;;;;;4.97;3.97;;;30.80;57.50;;;;;;6322872;28;20527;-64
2022/06/04 15:02:58;;;;;;;5.15;4.47;;;30.70;57.60;;;;;;6320901;28;20245;-64
2022/06/04 15:06:04;;;;;;;5.30;4.10;;;30.80;57.70;;;;;;6322152;28;20225;-64
2022/06/04 15:09:20;;;;;;;4.82;4.32;;;30.90;57.20;;;;;;6324552;28;20263;-64
2022/06/04 15:12:39;;;;;;;5.78;4.93;;;30.90;58.10;;;;;;6326808;28;20230;-63
2022/06/04 15:15:58;;;;;;;4.55;4.25;;;30.90;59.00;;;;;;6303572;28;20227;-63
2022/06/04 15:19:24;;;;;;;6.45;4.93;;;30.90;59.40;;;;;;6303703;28;20376;-62
2022/06/04 15:22:44;;;;;;;5.45;4.65;;;31.00;58.70;;;;;;6302940;28;20231;-64
2022/06/04 15:25:58;;;;;;;5.20;4.50;;;30.90;57.20;;;;;;6310540;28;20206;-66
2022/06/04 15:36:16;;;;;;;9.32;5.95;;;30.50;56.80;;;;;;6327592;28;20221;-65
2022/06/04 15:39:27;;;;;;;5.72;5.22;;;30.60;58.20;;;;;;6327928;28;20234;-63
2022/06/04 15:42:49;;;;;;;13.30;6.13;;;30.50;58.50;;;;;;6328042;28;20237;-65
2022/06/04 15:46:01;;;;;;;5.93;5.15;;;30.50;59.90;;;;;;6327339;28;20404;-63
2022/06/04 15:49:13;;;;;;;6.78;4.88;;;30.30;61.10;;;;;;6328074;28;20232;-64
2022/06/04 15:56:20;;;;;;;5.90;5.10;;;30.20;62.80;;;;;;6327530;28;20526;-64
2022/06/04 15:59:39;;;;;;;6.03;5.10;;;30.40;63.30;;;;;;6327898;28;20236;-64
2022/06/04 16:02:43;;;;;;;8.50;5.85;;;30.60;61.50;;;;;;6327557;28;20230;-64
2022/06/04 16:05:56;;;;;;;6.17;5.57;;;30.70;61.60;;;;;;6327627;28;20236;-65
2022/06/04 16:09:04;;;;;;;5.55;5.05;;;30.70;62.00;;;;;;6327199;28;20259;-65
2022/06/04 16:12:12;;;;;;;6.10;5.50;;;30.60;62.10;;;;;;6326454;28;20557;-64
2022/06/04 16:15:24;;;;;;;6.97;5.45;;;30.60;62.10;;;;;;6320418;28;20219;-65
2022/06/04 16:18:34;;;;;;;7.60;5.35;;;30.60;61.90;;;;;;6310703;28;20685;-65
2022/06/04 16:21:45;;;;;;;5.82;5.32;;;30.60;61.90;;;;;;6319649;28;20233;-65
2022/06/04 16:25:02;;;;;;;6.60;6.07;;;30.50;62.30;;;;;;6316844;28;20309;-65
2022/06/04 16:28:16;;;;;;;6.68;5.53;;;30.40;63.50;;;;;;6318767;28;20226;-66
2022/06/04 16:31:29;;;;;;;7.05;6.00;;;30.30;64.60;;;;;;6327666;28;20218;-65
2022/06/04 16:34:52;;;;;;;6.22;5.20;;;30.30;64.30;;;;;;6327863;28;20279;-65
2022/06/04 16:38:10;;;;;;;5.73;5.23;;;30.30;64.80;;;;;;6327738;28;20232;-65
2022/06/04 16:44:56;;;;;;;6.15;5.65;;;30.30;64.50;;;;;;6325975;28;20683;-63
2022/06/04 16:48:03;;;;;;;6.45;5.65;;;30.40;64.20;;;;;;6326075;28;20248;-63
2022/06/04 16:51:08;;;;;;;5.27;4.77;;;30.50;64.70;;;;;;6326240;28;20226;-63
2022/06/04 16:54:12;;;;;;;5.78;5.28;;;30.50;64.70;;;;;;6325612;28;20217;-63
2022/06/04 16:57:16;;;;;;;10.37;5.40;;;30.50;64.70;;;;;;6325169;28;20545;-62
2022/06/04 17:00:24;;;;;;;5.80;5.10;;;30.40;64.60;;;;;;6313062;28;20679;-63